Time;durP1;ratioP1;P1;durP2;ratioP2;P2;SDS_P1;SDS_P2;PMS_P1;PMS_P2;Temp;Humidity;BMP_temperature;BMP_pressure;BME280_temperature;BME280_humidity;BME280_pressure;Samples;Min_cycle;Max_cycle;Signal;HPM_P1;HPM_P2
2023/09/03 00:02:09;;;;;;;5.90;3.60;;;;;;;14.82;100.00;97257.39;108926;1271;22525;-85
2023/09/03 00:04:40;;;;;;;4.50;3.70;;;;;;;14.76;100.00;97253.46;108905;1266;24134;-85
2023/09/03 00:07:11;;;;;;;4.00;3.30;;;;;;;14.75;100.00;97255.66;108910;1269;24308;-85
2023/09/03 00:09:45;;;;;;;6.20;3.30;;;;;;;14.75;100.00;97253.79;108899;1271;22526;-85
2023/09/03 00:12:16;;;;;;;6.00;3.40;;;;;;;14.81;100.00;97250.95;108907;1271;23713;-85
2023/09/03 00:14:48;;;;;;;5.50;3.90;;;;;;;14.85;100.00;97246.60;108904;1266;22529;-85
2023/09/03 00:17:27;;;;;;;6.10;4.20;;;;;;;14.90;100.00;97248.23;108938;1269;22524;-85
2023/09/03 00:19:59;;;;;;;6.80;5.10;;;;;;;14.90;100.00;97242.73;108914;1272;24455;-85
2023/09/03 00:22:31;;;;;;;8.50;5.00;;;;;;;14.87;100.00;97247.22;108823;1272;22693;-84
2023/09/03 00:25:09;;;;;;;4.70;4.20;;;;;;;14.87;100.00;97245.72;108942;1272;22524;-85
2023/09/03 00:27:40;;;;;;;5.50;4.90;;;;;;;14.92;100.00;97245.49;108821;1271;22505;-84
2023/09/03 00:30:15;;;;;;;6.10;4.90;;;;;;;15.00;100.00;97240.14;108862;1272;22526;-85
2023/09/03 00:32:51;;;;;;;6.00;5.30;;;;;;;15.08;100.00;97236.13;108912;1272;24241;-85
2023/09/03 00:35:24;;;;;;;7.00;4.50;;;;;;;15.13;100.00;97233.09;108857;1266;22511;-85
2023/09/03 00:37:56;;;;;;;6.20;5.10;;;;;;;15.15;100.00;97235.41;108970;1269;26667;-85
2023/09/03 00:40:27;;;;;;;7.00;4.80;;;;;;;15.17;100.00;97237.25;108925;1269;23845;-85
2023/09/03 00:43:03;;;;;;;5.30;4.80;;;;;;;15.14;100.00;97237.84;108862;1266;24189;-86
2023/09/03 00:45:37;;;;;;;4.90;4.40;;;;;;;15.01;100.00;97233.77;108963;1271;22542;-85
2023/09/03 00:48:10;;;;;;;4.10;3.50;;;;;;;14.87;100.00;97234.63;108886;1271;33809;-85
2023/09/03 00:50:45;;;;;;;4.40;3.50;;;;;;;14.81;100.00;97232.10;108939;1267;23086;-85
2023/09/03 00:53:20;;;;;;;4.80;3.80;;;;;;;14.74;100.00;97231.44;108957;1269;24186;-85
2023/09/03 00:55:53;;;;;;;5.80;3.70;;;;;;;14.74;100.00;97229.84;108944;1272;24228;-85
2023/09/03 00:58:25;;;;;;;6.70;3.50;;;;;;;14.76;100.00;97228.54;108910;1271;24419;-85
2023/09/03 01:01:00;;;;;;;5.50;3.70;;;;;;;14.79;100.00;97227.86;108932;1270;22512;-85
2023/09/03 01:03:32;;;;;;;5.00;3.60;;;;;;;14.73;100.00;97226.34;108911;1271;25407;-85
2023/09/03 01:06:03;;;;;;;5.40;3.50;;;;;;;14.68;100.00;97227.48;108871;1271;22537;-85
2023/09/03 01:08:36;;;;;;;4.80;3.50;;;;;;;14.53;100.00;97224.44;108905;1272;22549;-85
2023/09/03 01:11:35;;;;;;;4.60;3.60;;;;;;;14.39;100.00;97224.33;108890;1272;22523;-85
2023/09/03 01:14:16;;;;;;;3.90;3.10;;;;;;;14.38;100.00;97222.38;108917;1266;22529;-85
2023/09/03 01:16:56;;;;;;;4.20;3.60;;;;;;;14.45;100.00;97226.83;108881;1266;22588;-85
2023/09/03 01:20:00;;;;;;;6.60;3.80;;;;;;;14.50;100.00;97229.66;108922;1266;22587;-85
2023/09/03 01:22:51;;;;;;;5.40;4.20;;;;;;;14.58;100.00;97229.00;108868;1269;22514;-84
2023/09/03 01:25:42;;;;;;;4.70;3.90;;;;;;;14.63;100.00;97229.63;108908;1265;22541;-85
2023/09/03 01:28:24;;;;;;;7.30;4.10;;;;;;;14.70;100.00;97232.54;108924;1271;22567;-85
2023/09/03 01:31:01;;;;;;;4.70;4.20;;;;;;;14.73;100.00;97230.77;108906;1272;22512;-85
2023/09/03 01:33:35;;;;;;;5.60;4.40;;;;;;;14.76;100.00;97229.86;108918;1269;23001;-85
2023/09/03 01:36:09;;;;;;;6.00;4.70;;;;;;;14.75;100.00;97224.05;108938;1270;25392;-85
2023/09/03 01:38:41;;;;;;;6.70;5.20;;;;;;;14.71;100.00;97226.20;108900;1271;22623;-85
2023/09/03 01:41:16;;;;;;;6.90;5.00;;;;;;;14.69;100.00;97227.78;108916;1271;22749;-85
2023/09/03 01:43:49;;;;;;;5.50;4.60;;;;;;;14.69;100.00;97225.08;108905;1271;25377;-85
2023/09/03 01:46:24;;;;;;;4.70;4.20;;;;;;;14.71;100.00;97225.84;108886;1271;22506;-85
2023/09/03 01:49:08;;;;;;;5.40;4.40;;;;;;;14.77;100.00;97220.04;108851;1272;23058;-85
2023/09/03 01:51:45;;;;;;;5.60;4.20;;;;;;;14.78;100.00;97226.44;109204;1271;22540;-85
2023/09/03 01:54:22;;;;;;;4.60;4.00;;;;;;;14.79;100.00;97224.23;108889;1272;26179;-85
2023/09/03 01:57:04;;;;;;;5.50;4.00;;;;;;;14.83;100.00;97221.92;108814;1272;24191;-85
2023/09/03 01:59:44;;;;;;;4.90;3.50;;;;;;;14.89;100.00;97221.18;108727;1272;22760;-85
2023/09/03 02:02:20;;;;;;;3.80;3.40;;;;;;;14.95;100.00;97222.30;108807;1272;22561;-85
2023/09/03 02:04:52;;;;;;;5.80;4.10;;;;;;;14.99;100.00;97218.20;108779;1271;22608;-85
2023/09/03 02:07:23;;;;;;;4.30;3.90;;;;;;;15.02;100.00;97217.84;108825;1266;24244;-85
2023/09/03 02:09:54;;;;;;;4.30;3.60;;;;;;;15.07;100.00;97217.45;108800;1269;22530;-85
2023/09/03 02:12:26;;;;;;;5.50;4.10;;;;;;;15.10;100.00;97218.79;108748;1272;25411;-85
2023/09/03 02:14:59;;;;;;;6.20;4.30;;;;;;;15.09;100.00;97216.89;108795;1272;22532;-85
2023/09/03 02:17:31;;;;;;;4.00;3.50;;;;;;;15.08;100.00;97216.24;108776;1272;22515;-84
2023/09/03 02:20:02;;;;;;;4.60;4.00;;;;;;;15.06;100.00;97217.88;108798;1266;22521;-86
2023/09/03 02:22:35;;;;;;;4.90;4.10;;;;;;;14.96;100.00;97216.77;108773;1269;22599;-85
2023/09/03 02:25:08;;;;;;;4.80;4.30;;;;;;;14.85;100.00;97213.24;108738;1271;25252;-85
2023/09/03 02:27:39;;;;;;;4.90;4.20;;;;;;;14.80;100.00;97210.77;108816;1266;23313;-85
2023/09/03 02:30:13;;;;;;;4.20;3.80;;;;;;;14.82;100.00;97206.52;108781;1272;24461;-86
2023/09/03 02:32:48;;;;;;;4.80;3.90;;;;;;;14.85;100.00;97208.22;108819;1269;22781;-86
2023/09/03 02:35:22;;;;;;;7.10;4.30;;;;;;;14.89;100.00;97206.88;108761;1272;22535;-85
2023/09/03 02:37:53;;;;;;;4.60;4.00;;;;;;;14.84;100.00;97206.70;108772;1266;25396;-85
2023/09/03 02:40:25;;;;;;;5.50;3.70;;;;;;;14.72;100.00;97206.98;108821;1272;22512;-85
2023/09/03 02:42:58;;;;;;;4.90;3.90;;;;;;;14.70;100.00;97201.05;108826;1272;22518;-86
2023/09/03 02:45:29;;;;;;;4.50;3.80;;;;;;;14.72;100.00;97199.73;108855;1272;25540;-85
2023/09/03 02:48:02;;;;;;;4.40;4.00;;;;;;;14.70;100.00;97201.04;108780;1272;23005;-85
2023/09/03 02:50:39;;;;;;;4.70;4.10;;;;;;;14.65;100.00;97201.27;108806;1272;25250;-85
2023/09/03 02:53:10;;;;;;;4.90;4.10;;;;;;;14.49;100.00;97198.29;108767;1266;23674;-85
2023/09/03 02:55:44;;;;;;;4.90;4.00;;;;;;;14.37;100.00;97195.77;108839;1270;22516;-85
2023/09/03 02:58:16;;;;;;;4.50;4.10;;;;;;;14.38;100.00;97191.61;108728;1266;43644;-86
2023/09/03 03:00:52;;;;;;;5.70;4.10;;;;;;;14.43;100.00;97193.08;108905;1272;25355;-85
2023/09/03 03:03:26;;;;;;;4.10;3.70;;;;;;;14.39;100.00;97194.89;108948;1269;25567;-85
2023/09/03 03:06:00;;;;;;;4.20;3.80;;;;;;;14.35;100.00;97196.70;108916;1272;22523;-85
2023/09/03 03:08:33;;;;;;;3.70;3.40;;;;;;;14.27;100.00;97196.22;108876;1265;22454;-85
2023/09/03 03:11:12;;;;;;;6.00;3.70;;;;;;;14.20;100.00;97194.75;108901;1271;25884;-85
2023/09/03 03:13:52;;;;;;;4.80;3.80;;;;;;;14.18;100.00;97194.98;108904;1266;25233;-85
2023/09/03 03:16:25;;;;;;;7.10;4.10;;;;;;;14.25;100.00;97194.75;108882;1269;24212;-85
2023/09/03 03:18:57;;;;;;;5.50;3.90;;;;;;;14.33;100.00;97189.62;108862;1266;25256;-85
2023/09/03 03:21:30;;;;;;;6.10;3.90;;;;;;;14.40;100.00;97192.80;108907;1267;22514;-85
2023/09/03 03:24:04;;;;;;;5.80;3.80;;;;;;;14.44;100.00;97196.54;108820;1271;23190;-85
2023/09/03 03:26:37;;;;;;;4.20;3.80;;;;;;;14.45;100.00;97201.02;108920;1267;22583;-85
2023/09/03 03:29:09;;;;;;;5.60;4.00;;;;;;;14.47;100.00;97206.05;108906;1269;22519;-85
2023/09/03 03:31:41;;;;;;;5.80;3.90;;;;;;;14.48;100.00;97209.17;108918;1270;22541;-85
2023/09/03 03:34:14;;;;;;;4.90;3.20;;;;;;;14.40;100.00;97209.76;108778;1272;168899;-85
2023/09/03 03:36:47;;;;;;;4.10;3.40;;;;;;;14.29;100.00;97206.97;108945;1272;25246;-85
2023/09/03 03:39:21;;;;;;;4.80;3.70;;;;;;;14.19;100.00;97206.98;108824;1267;24725;-85
2023/09/03 03:41:54;;;;;;;5.50;4.10;;;;;;;14.22;100.00;97201.77;108885;1272;25414;-85
2023/09/03 03:44:28;;;;;;;5.40;3.80;;;;;;;14.28;100.00;97200.10;108881;1272;22510;-85
2023/09/03 03:46:59;;;;;;;4.30;3.70;;;;;;;14.35;100.00;97200.74;108895;1266;22514;-85
2023/09/03 03:49:30;;;;;;;4.80;3.80;;;;;;;14.36;100.00;97206.46;108890;1271;24296;-85
2023/09/03 03:52:02;;;;;;;5.90;3.70;;;;;;;14.37;100.00;97205.22;108894;1272;25036;-85
2023/09/03 03:54:33;;;;;;;4.10;3.70;;;;;;;14.43;100.00;97203.70;108914;1272;22520;-84
2023/09/03 03:57:04;;;;;;;4.60;4.00;;;;;;;14.45;100.00;97208.64;108887;1272;22519;-85
2023/09/03 03:59:36;;;;;;;6.10;4.00;;;;;;;14.41;100.00;97209.80;108893;1272;22525;-85
2023/09/03 04:02:07;;;;;;;4.50;4.00;;;;;;;14.35;100.00;97207.69;108906;1269;22522;-85
2023/09/03 04:04:39;;;;;;;5.40;4.40;;;;;;;14.36;100.00;97206.94;108893;1263;22517;-85
2023/09/03 04:07:10;;;;;;;6.80;4.10;;;;;;;14.42;100.00;97203.17;108910;1266;25394;-85
2023/09/03 04:09:41;;;;;;;4.30;3.90;;;;;;;14.48;100.00;97198.14;108886;1272;22519;-85
2023/09/03 04:12:14;;;;;;;7.50;4.80;;;;;;;14.54;100.00;97196.63;108912;1271;22678;-85
2023/09/03 04:14:48;;;;;;;4.60;4.20;;;;;;;14.61;100.00;97189.36;108920;1262;22542;-85
2023/09/03 04:17:22;;;;;;;5.10;4.50;;;;;;;14.64;100.00;97185.48;108867;1269;22516;-85
2023/09/03 04:19:54;;;;;;;5.80;4.40;;;;;;;14.67;100.00;97188.23;108912;1271;22540;-85
2023/09/03 04:22:31;;;;;;;5.10;4.30;;;;;;;14.70;100.00;97187.73;108919;1271;22529;-85
2023/09/03 04:25:02;;;;;;;5.20;4.50;;;;;;;14.74;100.00;97196.05;108848;1267;22519;-85
2023/09/03 04:27:36;;;;;;;4.30;3.80;;;;;;;14.78;100.00;97202.35;108951;1271;22516;-84
2023/09/03 04:30:10;;;;;;;4.70;4.20;;;;;;;14.85;100.00;97199.41;108905;1272;23144;-85
2023/09/03 04:32:44;;;;;;;5.50;3.90;;;;;;;15.05;100.00;97196.80;108969;1272;22569;-85
2023/09/03 04:35:18;;;;;;;5.80;4.30;;;;;;;15.21;100.00;97198.20;108917;1249;22527;-85
2023/09/03 04:37:50;;;;;;;8.50;4.10;;;;;;;15.31;100.00;97191.92;108842;1272;22562;-85
2023/09/03 04:40:22;;;;;;;6.70;4.00;;;;;;;15.32;100.00;97188.53;108911;1270;22525;-85
2023/09/03 04:42:54;;;;;;;5.10;4.10;;;;;;;15.27;100.00;97178.10;108882;1269;22521;-85
2023/09/03 04:45:25;;;;;;;4.50;3.60;;;;;;;15.23;100.00;97176.30;108878;1269;22607;-84
2023/09/03 04:48:00;;;;;;;3.70;3.40;;;;;;;15.18;100.00;97184.73;108897;1272;29574;-84
2023/09/03 04:50:31;;;;;;;7.80;4.00;;;;;;;15.04;100.00;97198.10;108909;1249;22526;-85
2023/09/03 04:53:02;;;;;;;5.70;4.30;;;;;;;14.93;100.00;97202.08;108958;1272;22909;-85
2023/09/03 04:55:35;;;;;;;5.50;3.90;;;;;;;14.91;100.00;97197.12;108881;1269;26567;-85
2023/09/03 04:58:06;;;;;;;4.90;3.90;;;;;;;14.91;100.00;97201.33;108915;1270;26424;-85
2023/09/03 05:00:38;;;;;;;4.90;4.00;;;;;;;14.94;100.00;97199.55;108966;1272;23977;-85
2023/09/03 05:03:10;;;;;;;5.00;4.30;;;;;;;14.98;100.00;97196.08;108897;1269;24232;-85
2023/09/03 05:05:46;;;;;;;5.10;4.40;;;;;;;15.03;100.00;97203.39;108944;1272;22532;-83
2023/09/03 05:08:21;;;;;;;5.90;4.60;;;;;;;15.15;100.00;97210.05;108915;1267;22532;-84
2023/09/03 05:10:52;;;;;;;6.10;4.40;;;;;;;15.54;100.00;97204.98;108966;1269;22518;-84
2023/09/03 05:13:24;;;;;;;4.60;4.00;;;;;;;15.78;100.00;97201.00;109006;1272;22729;-84
2023/09/03 05:15:55;;;;;;;4.40;3.90;;;;;;;15.93;100.00;97196.08;108890;1270;24827;-84
2023/09/03 05:18:27;;;;;;;5.10;3.70;;;;;;;16.28;100.00;97196.34;108904;1272;22544;-84
2023/09/03 05:20:58;;;;;;;4.10;3.70;;;;;;;16.58;100.00;97194.50;108875;1272;22686;-84
2023/09/03 05:23:29;;;;;;;4.80;3.70;;;;;;;16.52;100.00;97196.27;108816;1271;22514;-84
2023/09/03 05:26:01;;;;;;;4.60;4.00;;;;;;;16.53;100.00;97191.08;108807;1269;22514;-84
2023/09/03 05:28:33;;;;;;;4.40;3.80;;;;;;;17.01;100.00;97190.89;108847;1271;22708;-84
2023/09/03 05:31:04;;;;;;;4.10;3.40;;;;;;;17.68;100.00;97190.88;108807;1271;22517;-85
2023/09/03 05:33:36;;;;;;;3.80;3.40;;;;;;;18.21;100.00;97195.68;108784;1272;25204;-86
2023/09/03 05:36:08;;;;;;;4.90;3.70;;;;;;;18.52;100.00;97196.05;109273;1269;22503;-85
2023/09/03 05:38:42;;;;;;;4.90;3.70;;;;;;;18.65;100.00;97194.89;108785;1271;22632;-85
2023/09/03 05:41:16;;;;;;;5.00;3.90;;;;;;;18.60;100.00;97188.29;108740;1271;22545;-85
2023/09/03 05:43:47;;;;;;;5.80;3.60;;;;;;;18.41;100.00;97185.16;108826;1272;22526;-85
2023/09/03 05:46:21;;;;;;;4.40;3.30;;;;;;;18.26;100.00;97189.32;108728;1271;22523;-83
2023/09/03 05:48:53;;;;;;;4.10;3.70;;;;;;;18.09;100.00;97199.58;108776;1271;22524;-83
2023/09/03 05:51:24;;;;;;;4.10;3.40;;;;;;;17.97;100.00;97196.70;108729;1272;22523;-83
2023/09/03 05:53:55;;;;;;;4.00;3.60;;;;;;;17.88;100.00;97192.44;108763;1267;22521;-83
2023/09/03 05:56:26;;;;;;;4.90;3.60;;;;;;;17.76;100.00;97192.43;108895;1270;22518;-83
2023/09/03 05:59:04;;;;;;;4.20;3.80;;;;;;;17.70;100.00;97195.05;108844;1272;22538;-83
2023/09/03 06:01:38;;;;;;;4.10;3.40;;;;;;;17.59;100.00;97202.89;108812;1269;22557;-83
2023/09/03 06:04:13;;;;;;;4.00;3.40;;;;;;;17.52;100.00;97204.91;108900;1272;22519;-83
2023/09/03 06:06:47;;;;;;;4.30;3.70;;;;;;;17.48;100.00;97211.02;108923;1272;22512;-83
2023/09/03 06:09:19;;;;;;;4.10;3.50;;;;;;;17.44;100.00;97212.48;108821;1269;27078;-83
2023/09/03 06:11:51;;;;;;;5.40;4.10;;;;;;;17.42;100.00;97221.60;108929;1264;22983;-83
2023/09/03 06:14:23;;;;;;;5.20;4.10;;;;;;;17.37;100.00;97230.66;108890;1269;22519;-83
2023/09/03 06:16:55;;;;;;;6.30;3.90;;;;;;;17.30;100.00;97236.92;108850;1259;22508;-83
2023/09/03 06:19:27;;;;;;;4.20;3.50;;;;;;;17.20;100.00;97243.77;108851;1269;23074;-83
2023/09/03 06:21:59;;;;;;;5.20;3.80;;;;;;;17.06;100.00;97249.77;108874;1270;25479;-82
2023/09/03 06:24:30;;;;;;;5.90;4.30;;;;;;;16.92;100.00;97249.52;108762;1263;23643;-83
2023/09/03 06:27:02;;;;;;;4.20;3.80;;;;;;;16.78;100.00;97252.45;108742;1264;22525;-83
2023/09/03 06:29:34;;;;;;;3.80;3.50;;;;;;;16.68;100.00;97253.80;108704;1272;22511;-82
2023/09/03 06:32:06;;;;;;;4.60;4.20;;;;;;;16.63;100.00;97259.72;108784;1272;23890;-82
2023/09/03 06:34:37;;;;;;;5.60;4.40;;;;;;;16.57;100.00;97258.65;108757;1272;25394;-83
2023/09/03 06:37:10;;;;;;;5.20;4.40;;;;;;;16.53;100.00;97269.52;108619;1272;22688;-83
2023/09/03 06:39:42;;;;;;;5.20;3.90;;;;;;;16.50;100.00;97271.03;108650;1267;22558;-83
2023/09/03 06:42:22;;;;;;;10.20;6.00;;;;;;;16.49;100.00;97267.30;108716;1272;23299;-83
2023/09/03 06:44:53;;;;;;;6.30;5.30;;;;;;;16.43;100.00;97263.98;108752;1269;24995;-83
2023/09/03 06:47:24;;;;;;;7.10;5.70;;;;;;;16.40;100.00;97266.14;108652;1267;24133;-83
2023/09/03 06:49:58;;;;;;;6.60;5.90;;;;;;;16.40;100.00;97271.08;108611;1267;22520;-83
2023/09/03 06:52:29;;;;;;;6.80;6.10;;;;;;;16.39;100.00;97273.77;108757;1270;22557;-81
2023/09/03 06:55:01;;;;;;;7.70;6.70;;;;;;;16.40;100.00;97272.15;108635;1270;22573;-80
2023/09/03 06:57:33;;;;;;;7.80;6.50;;;;;;;16.41;100.00;97270.61;108895;1272;26626;-80
2023/09/03 07:00:07;;;;;;;8.50;6.10;;;;;;;16.40;100.00;97271.64;108751;1266;22541;-81
2023/09/03 07:02:40;;;;;;;8.20;6.10;;;;;;;16.38;100.00;97270.52;109188;1266;22544;-82
2023/09/03 07:05:14;;;;;;;8.50;6.80;;;;;;;16.37;100.00;97267.02;108600;1267;22642;-81
2023/09/03 07:07:51;;;;;;;7.40;6.40;;;;;;;16.37;100.00;97261.77;108618;1266;24034;-81
2023/09/03 07:10:23;;;;;;;7.30;6.30;;;;;;;16.34;100.00;97264.04;108629;1272;22542;-81
2023/09/03 07:12:58;;;;;;;9.20;7.50;;;;;;;16.30;100.00;97271.47;108696;1272;22521;-81
2023/09/03 07:15:30;;;;;;;10.30;7.70;;;;;;;16.27;100.00;97276.95;108704;1271;22545;-81
2023/09/03 07:18:01;;;;;;;12.20;8.50;;;;;;;16.26;100.00;97284.24;108720;1272;22515;-81
2023/09/03 07:20:32;;;;;;;11.40;8.20;;;;;;;16.22;100.00;97286.91;108496;1267;22551;-81
2023/09/03 07:23:03;;;;;;;12.20;8.70;;;;;;;16.13;100.00;97287.87;108618;1269;23058;-81
2023/09/03 07:25:35;;;;;;;9.40;8.50;;;;;;;16.07;100.00;97286.55;108625;1272;23848;-81
2023/09/03 07:28:07;;;;;;;10.40;8.80;;;;;;;16.07;100.00;97291.42;108598;1272;24397;-81
2023/09/03 07:30:41;;;;;;;9.30;7.80;;;;;;;16.02;100.00;97295.55;108704;1272;22555;-84
2023/09/03 07:33:17;;;;;;;7.80;6.80;;;;;;;15.98;100.00;97294.46;108766;1272;25389;-84
2023/09/03 07:35:51;;;;;;;10.80;7.60;;;;;;;15.91;100.00;97294.16;108740;1272;22523;-83
2023/09/03 07:38:22;;;;;;;9.20;6.70;;;;;;;15.86;100.00;97288.48;108780;1272;22524;-84
2023/09/03 07:40:55;;;;;;;8.10;7.30;;;;;;;15.82;100.00;97289.31;108659;1266;22514;-84
2023/09/03 07:43:27;;;;;;;9.70;7.50;;;;;;;15.77;100.00;97287.63;108867;1270;22514;-84
2023/09/03 07:45:58;;;;;;;8.50;7.60;;;;;;;15.73;100.00;97290.25;108792;1272;22531;-84
2023/09/03 07:48:29;;;;;;;8.20;7.30;;;;;;;15.73;100.00;97292.77;108787;1270;24360;-84
2023/09/03 07:51:00;;;;;;;9.10;7.30;;;;;;;15.76;100.00;97291.92;108757;1270;22514;-84
2023/09/03 07:53:32;;;;;;;8.50;7.50;;;;;;;15.79;100.00;97280.54;108756;1272;22542;-84
2023/09/03 07:56:04;;;;;;;8.70;7.80;;;;;;;15.85;100.00;97267.05;108812;1272;22550;-84
2023/09/03 07:58:36;;;;;;;8.30;7.50;;;;;;;15.90;100.00;97267.70;108781;1268;25659;-84
2023/09/03 08:01:10;;;;;;;9.50;7.40;;;;;;;15.94;100.00;97272.13;108765;1272;22505;-84
2023/09/03 08:03:44;;;;;;;8.80;7.90;;;;;;;15.97;100.00;97278.05;108831;1272;22514;-84
2023/09/03 08:06:18;;;;;;;8.60;7.70;;;;;;;16.00;100.00;97279.38;108851;1266;22525;-84
2023/09/03 08:08:54;;;;;;;8.20;7.20;;;;;;;16.02;100.00;97289.24;108820;1272;25234;-84
2023/09/03 08:11:29;;;;;;;9.10;7.60;;;;;;;15.95;100.00;97306.73;108831;1264;22568;-84
2023/09/03 08:14:03;;;;;;;9.00;7.60;;;;;;;15.87;100.00;97317.43;108834;1269;25481;-85
2023/09/03 08:16:35;;;;;;;9.30;7.60;;;;;;;15.85;100.00;97322.23;108649;1267;22757;-85
2023/09/03 08:19:06;;;;;;;10.10;8.50;;;;;;;15.82;100.00;97323.48;108609;1269;24253;-85
2023/09/03 08:21:38;;;;;;;9.60;7.90;;;;;;;15.78;100.00;97328.05;108689;1266;22518;-85
2023/09/03 08:24:11;;;;;;;10.20;8.70;;;;;;;15.76;100.00;97323.24;108912;1272;22524;-85
2023/09/03 08:26:45;;;;;;;10.50;8.20;;;;;;;15.75;100.00;97319.77;108808;1271;22563;-85
2023/09/03 08:29:21;;;;;;;11.80;8.60;;;;;;;15.72;100.00;97322.52;108959;1272;22519;-85
2023/09/03 08:31:52;;;;;;;9.10;8.10;;;;;;;15.72;100.00;97325.50;108926;1271;22511;-85
2023/09/03 08:34:24;;;;;;;9.20;8.10;;;;;;;15.74;100.00;97318.95;108901;1269;22527;-85
2023/09/03 08:36:57;;;;;;;10.00;8.90;;;;;;;15.79;100.00;97307.80;108942;1266;22534;-84
2023/09/03 08:39:29;;;;;;;8.80;7.90;;;;;;;15.86;100.00;97302.00;108893;1272;25414;-84
2023/09/03 08:42:01;;;;;;;9.20;8.20;;;;;;;15.89;100.00;97307.55;108757;1272;23118;-84
2023/09/03 08:48:15;;;;;;;9.50;8.30;;;;;;;15.91;100.00;97324.06;108745;1266;23857;-84
2023/09/03 08:50:49;;;;;;;10.10;9.10;;;;;;;15.82;100.00;97329.98;108774;1268;25666;-84
2023/09/03 08:53:23;;;;;;;10.80;9.70;;;;;;;15.78;100.00;97336.64;108820;1270;22519;-84
2023/09/03 08:55:54;;;;;;;10.70;9.60;;;;;;;15.82;100.00;97338.98;108833;1272;22522;-84
2023/09/03 08:58:29;;;;;;;10.70;9.50;;;;;;;15.84;100.00;97339.79;108842;1272;22641;-85
2023/09/03 09:01:01;;;;;;;10.20;9.20;;;;;;;15.90;100.00;97333.39;108829;1267;22534;-84
2023/09/03 09:03:36;;;;;;;10.10;9.00;;;;;;;15.92;100.00;97331.02;108838;1257;25662;-85
2023/09/03 09:06:10;;;;;;;11.40;10.30;;;;;;;15.94;100.00;97338.71;108859;1272;25577;-84
2023/09/03 09:08:44;;;;;;;11.80;10.50;;;;;;;16.01;100.00;97337.82;108859;1272;22526;-84
2023/09/03 09:11:19;;;;;;;12.40;10.90;;;;;;;16.10;100.00;97339.19;108837;1272;22515;-84
2023/09/03 09:13:58;;;;;;;13.40;11.50;;;;;;;16.15;100.00;97343.77;108867;1267;22519;-85
2023/09/03 09:16:29;;;;;;;11.50;10.30;;;;;;;16.18;100.00;97344.64;108846;1272;25232;-84
2023/09/03 09:19:02;;;;;;;8.10;7.30;;;;;;;16.19;100.00;97346.83;108868;1272;22528;-84
2023/09/03 09:21:34;;;;;;;7.30;6.60;;;;;;;16.24;100.00;97344.53;108799;1271;22518;-85
2023/09/03 09:24:06;;;;;;;11.30;9.40;;;;;;;16.33;100.00;97341.36;108858;1272;25347;-84
2023/09/03 09:26:38;;;;;;;12.90;11.60;;;;;;;16.43;100.00;97338.55;108814;1268;22556;-84
2023/09/03 09:29:15;;;;;;;12.90;11.50;;;;;;;16.56;100.00;97342.58;108868;1272;25380;-85
2023/09/03 09:31:49;;;;;;;12.30;11.00;;;;;;;16.70;100.00;97344.66;108786;1270;24301;-85
2023/09/03 09:34:23;;;;;;;9.90;8.90;;;;;;;16.81;100.00;97339.52;108883;1271;22533;-85
2023/09/03 09:36:59;;;;;;;9.30;7.50;;;;;;;16.85;100.00;97340.50;108873;1272;22533;-85
2023/09/03 09:39:30;;;;;;;10.10;7.80;;;;;;;16.85;100.00;97344.69;108803;1272;22550;-85
2023/09/03 09:42:12;;;;;;;7.80;6.30;;;;;;;16.94;100.00;97347.88;108743;1272;22647;-85
2023/09/03 09:44:59;;;;;;;7.10;6.00;;;;;;;17.03;100.00;97340.61;108808;1267;22519;-85
2023/09/03 09:47:32;;;;;;;7.80;5.80;;;;;;;16.90;100.00;97338.32;108821;1272;25234;-84
2023/09/03 09:50:04;;;;;;;8.30;6.50;;;;;;;16.80;100.00;97340.93;108807;1271;24131;-84
2023/09/03 09:52:40;;;;;;;7.80;7.00;;;;;;;16.77;100.00;97340.09;108820;1272;22525;-84
2023/09/03 09:55:21;;;;;;;7.20;6.50;;;;;;;16.80;100.00;97337.68;108848;1271;22642;-84
2023/09/03 09:57:54;;;;;;;10.50;7.20;;;;;;;16.84;100.00;97340.36;108873;1271;24226;-85
2023/09/03 10:00:39;;;;;;;8.00;6.70;;;;;;;16.82;100.00;97345.92;108870;1264;25935;-84
2023/09/03 10:03:15;;;;;;;8.60;7.20;;;;;;;16.83;100.00;97346.18;108767;1272;22506;-85
2023/09/03 10:05:58;;;;;;;8.00;7.20;;;;;;;16.88;100.00;97346.96;108851;1266;23171;-85
2023/09/03 10:08:31;;;;;;;8.80;7.90;;;;;;;16.94;100.00;97347.94;108907;1270;22533;-84
2023/09/03 10:11:03;;;;;;;8.70;7.80;;;;;;;16.95;100.00;97346.18;108851;1269;22653;-84
2023/09/03 10:13:38;;;;;;;8.10;7.30;;;;;;;17.03;100.00;97344.89;108869;1267;22648;-85
2023/09/03 10:16:13;;;;;;;9.10;7.00;;;;;;;17.10;100.00;97338.25;108808;1272;22507;-85
2023/09/03 10:18:47;;;;;;;6.70;5.20;;;;;;;17.17;100.00;97340.83;108856;1267;22519;-85
2023/09/03 10:21:24;;;;;;;6.30;5.60;;;;;;;17.18;100.00;97340.76;108861;1266;22525;-85
2023/09/03 10:24:00;;;;;;;6.20;5.60;;;;;;;17.09;100.00;97339.19;108866;1272;22523;-85
2023/09/03 10:26:41;;;;;;;8.00;6.30;;;;;;;17.07;100.00;97337.09;108806;1272;23344;-84
2023/09/03 10:29:19;;;;;;;6.50;5.70;;;;;;;17.09;100.00;97341.23;108881;1267;22525;-85
2023/09/03 10:31:54;;;;;;;7.40;6.00;;;;;;;17.10;100.00;97336.55;108844;1267;22523;-85
2023/09/03 10:34:33;;;;;;;7.20;6.20;;;;;;;17.13;100.00;97334.86;108880;1267;22524;-85
2023/09/03 10:37:09;;;;;;;6.70;5.90;;;;;;;17.17;100.00;97333.89;108800;1269;23326;-85
2023/09/03 10:39:46;;;;;;;6.30;5.70;;;;;;;17.28;100.00;97329.32;108859;1272;22518;-85
2023/09/03 10:42:32;;;;;;;6.60;5.30;;;;;;;17.46;100.00;97327.63;108752;1266;23316;-85
2023/09/03 10:45:15;;;;;;;7.10;5.50;;;;;;;17.56;100.00;97321.36;108837;1271;22637;-85
2023/09/03 10:48:05;;;;;;;5.90;5.20;;;;;;;17.69;100.00;97318.86;108838;1270;23763;-85
2023/09/03 10:50:52;;;;;;;5.20;4.70;;;;;;;17.77;100.00;97323.19;108865;1271;23455;-84
2023/09/03 10:53:38;;;;;;;5.20;4.70;;;;;;;17.93;100.00;97322.90;108880;1271;22532;-84
2023/09/03 10:56:16;;;;;;;5.50;4.90;;;;;;;18.15;100.00;97320.32;108825;1272;22510;-84
2023/09/03 10:58:59;;;;;;;5.30;4.50;;;;;;;18.34;100.00;97317.59;108835;1271;22574;-84
2023/09/03 11:01:33;;;;;;;6.00;5.40;;;;;;;18.47;100.00;97320.36;108880;1272;22531;-85
2023/09/03 11:04:06;;;;;;;6.30;4.80;;;;;;;18.53;100.00;97318.67;108859;1272;24200;-84
2023/09/03 11:06:38;;;;;;;5.40;4.80;;;;;;;18.51;100.00;97318.05;108869;1267;22503;-84
2023/09/03 11:09:27;;;;;;;5.80;4.60;;;;;;;18.50;100.00;97317.53;108825;1272;22524;-84
2023/09/03 11:12:05;;;;;;;6.70;4.90;;;;;;;18.44;100.00;97315.55;108848;1272;25386;-84
2023/09/03 11:14:40;;;;;;;7.40;5.20;;;;;;;18.41;100.00;97306.35;108850;1267;25341;-84
2023/09/03 11:17:20;;;;;;;6.70;5.50;;;;;;;18.34;99.41;97300.25;108854;1266;22511;-84
2023/09/03 11:19:52;;;;;;;5.70;5.20;;;;;;;18.21;98.50;97302.28;108810;1271;22514;-84
2023/09/03 11:22:26;;;;;;;7.00;5.20;;;;;;;18.15;98.94;97302.59;108809;1271;22943;-84
2023/09/03 11:25:02;;;;;;;5.90;5.20;;;;;;;18.21;99.86;97308.51;108886;1272;22532;-84
2023/09/03 11:27:35;;;;;;;6.00;4.90;;;;;;;18.28;99.86;97313.80;108882;1266;22519;-84
2023/09/03 11:30:09;;;;;;;5.40;4.90;;;;;;;18.32;99.87;97311.16;108883;1264;22546;-84
2023/09/03 11:32:42;;;;;;;7.60;5.20;;;;;;;18.40;100.00;97306.86;108862;1266;22515;-84
2023/09/03 11:35:16;;;;;;;7.00;5.90;;;;;;;18.44;98.95;97307.20;108877;1272;22507;-84
2023/09/03 11:37:49;;;;;;;6.60;5.20;;;;;;;18.45;98.59;97305.70;108857;1267;22561;-84
2023/09/03 11:40:24;;;;;;;6.30;5.40;;;;;;;18.61;98.90;97311.01;108850;1272;22514;-84
2023/09/03 11:42:57;;;;;;;5.60;4.60;;;;;;;18.77;99.03;97307.27;108801;1271;22557;-84
2023/09/03 11:45:32;;;;;;;7.50;6.20;;;;;;;18.90;97.83;97303.66;108837;1272;22545;-84
2023/09/03 11:48:07;;;;;;;6.10;5.40;;;;;;;18.88;96.88;97298.32;108824;1271;26154;-84
2023/09/03 11:50:40;;;;;;;5.70;4.60;;;;;;;18.73;95.45;97295.95;108841;1266;22557;-84
2023/09/03 11:53:13;;;;;;;6.10;5.10;;;;;;;18.51;94.67;97295.08;108913;1266;22529;-84